Time;durP1;ratioP1;P1;durP2;ratioP2;P2;SDS_P1;SDS_P2;PMS_P1;PMS_P2;Temp;Humidity;BMP_temperature;BMP_pressure;BME280_temperature;BME280_humidity;BME280_pressure;Samples;Min_cycle;Max_cycle;Signal;HPM_P1;HPM_P2
2022/08/07 00:00:43;;;;;;;;;;;;;;;16.77;47.19;100334.72;4996592;28;963;-51
2022/08/07 00:03:09;;;;;;;;;;;;;;;16.68;47.52;100330.13;4997557;28;1190;-51
2022/08/07 00:05:34;;;;;;;;;;;;;;;16.91;47.55;100331.34;4993313;28;1014;-48
2022/08/07 00:08:00;;;;;;;;;;;;;;;17.38;49.06;100326.28;5008959;28;1117;-48
2022/08/07 00:10:25;;;;;;;;;;;;;;;17.00;49.30;100324.13;4993976;28;916;-45
2022/08/07 00:12:51;;;;;;;;;;;;;;;17.00;48.50;100328.78;4992809;28;1180;-49
2022/08/07 00:15:16;;;;;;;;;;;;;;;16.86;48.19;100326.69;4992751;28;1914;-48
2022/08/07 00:17:42;;;;;;;;;;;;;;;16.96;47.85;100336.81;4992046;28;1204;-51
2022/08/07 00:20:07;;;;;;;;;;;;;;;16.92;47.58;100333.00;4990550;28;1011;-50
2022/08/07 00:22:33;;;;;;;;;;;;;;;16.84;47.53;100328.88;4988317;28;900;-51
2022/08/07 00:24:58;;;;;;;;;;;;;;;16.86;47.28;100323.13;4996805;28;967;-50
2022/08/07 00:27:23;;;;;;;;;;;;;;;16.81;47.19;100320.41;4997178;28;1160;-49
2022/08/07 00:29:49;;;;;;;;;;;;;;;16.78;47.34;100327.28;4978151;28;1181;-50
2022/08/07 00:32:14;;;;;;;;;;;;;;;16.79;47.31;100320.72;4988378;28;1006;-48
2022/08/07 00:34:40;;;;;;;;;;;;;;;16.80;47.17;100318.78;4991798;28;1910;-48
2022/08/07 00:37:05;;;;;;;;;;;;;;;16.68;47.52;100303.47;5008425;28;1086;-49
2022/08/07 00:39:34;;;;;;;;;;;;;;;16.71;47.39;100316.63;4975209;28;1112;-50
2022/08/07 00:41:59;;;;;;;;;;;;;;;16.77;47.09;100314.66;4997165;28;1007;-49
2022/08/07 00:44:25;;;;;;;;;;;;;;;16.70;47.38;100317.72;4991299;28;1688;-46
2022/08/07 00:46:50;;;;;;;;;;;;;;;16.71;47.16;100302.91;4991176;28;987;-48
2022/08/07 00:49:16;;;;;;;;;;;;;;;17.83;48.01;100309.56;4995800;28;1346;-48
2022/08/07 00:51:42;;;;;;;;;;;;;;;17.12;49.06;100320.19;4995078;28;1097;-49
2022/08/07 00:54:07;;;;;;;;;;;;;;;16.96;48.60;100317.59;5009073;28;1014;-50
2022/08/07 00:56:33;;;;;;;;;;;;;;;16.95;48.15;100315.94;5005496;28;1905;-51
2022/08/07 00:58:59;;;;;;;;;;;;;;;16.79;47.88;100319.88;4988797;28;1237;-45
2022/08/07 01:01:24;;;;;;;;;;;;;;;16.85;47.80;100316.81;4995917;28;963;-49
2022/08/07 01:03:53;;;;;;;;;;;;;;;17.56;48.67;100319.22;5009056;28;1138;-50
2022/08/07 01:06:18;;;;;;;;;;;;;;;17.68;49.75;100325.13;4994922;28;1018;-48
2022/08/07 01:08:44;;;;;;;;;;;;;;;17.22;49.67;100320.09;4997215;28;1062;-49
2022/08/07 01:11:09;;;;;;;;;;;;;;;17.19;48.74;100316.00;4992786;28;936;-46
2022/08/07 01:13:35;;;;;;;;;;;;;;;17.11;48.46;100319.38;5007428;28;1332;-51
2022/08/07 01:16:01;;;;;;;;;;;;;;;17.02;48.19;100316.41;4975713;28;1910;-47
2022/08/07 01:18:28;;;;;;;;;;;;;;;17.07;47.82;100316.38;4996517;28;1030;-48
2022/08/07 01:21:12;;;;;;;;;;;;;;;17.05;47.79;100313.09;4973932;28;1333;-47
2022/08/07 01:23:39;;;;;;;;;;;;;;;16.95;47.60;100318.69;4994429;28;1347;-49
2022/08/07 01:26:06;;;;;;;;;;;;;;;16.91;47.75;100312.97;4998565;28;1066;-50
2022/08/07 01:28:32;;;;;;;;;;;;;;;16.96;47.57;100311.25;5018504;28;1241;-49
2022/08/07 01:30:58;;;;;;;;;;;;;;;16.90;47.27;100307.72;5000008;28;1311;-51
2022/08/07 01:33:24;;;;;;;;;;;;;;;16.86;47.43;100301.16;5013823;28;1132;-46
2022/08/07 01:35:52;;;;;;;;;;;;;;;16.81;47.42;100303.94;4978400;28;1983;-51
2022/08/07 01:38:18;;;;;;;;;;;;;;;16.82;47.22;100303.66;4997434;28;1136;-51
2022/08/07 01:40:44;;;;;;;;;;;;;;;16.84;47.36;100308.84;4998704;28;1061;-50
2022/08/07 01:43:10;;;;;;;;;;;;;;;16.80;47.07;100313.28;4985266;28;1260;-50
2022/08/07 01:45:36;;;;;;;;;;;;;;;16.77;47.37;100311.91;5000574;28;1194;-50
2022/08/07 01:48:02;;;;;;;;;;;;;;;16.87;47.35;100320.09;4984303;28;1299;-51
2022/08/07 01:50:28;;;;;;;;;;;;;;;17.34;49.18;100317.78;5017595;28;1223;-47
2022/08/07 01:52:54;;;;;;;;;;;;;;;17.17;48.58;100314.66;5017043;28;1006;-49
2022/08/07 01:55:33;;;;;;;;;;;;;;;17.05;48.47;100310.34;4999275;28;1918;-47
2022/08/07 01:58:00;;;;;;;;;;;;;;;16.95;48.30;100306.88;4996524;28;1519;-49
2022/08/07 02:00:26;;;;;;;;;;;;;;;16.86;48.07;100296.47;4984620;28;1339;-50
2022/08/07 02:02:58;;;;;;;;;;;;;;;16.89;47.85;100300.63;5000926;28;1297;-50
2022/08/07 02:05:32;;;;;;;;;;;;;;;16.87;47.67;100302.78;5014323;28;1140;-48
2022/08/07 02:08:00;;;;;;;;;;;;;;;16.87;47.49;100305.53;4988636;28;995;-46
2022/08/07 02:10:32;;;;;;;;;;;;;;;16.87;47.62;100294.53;4990816;28;1311;-49
2022/08/07 02:12:58;;;;;;;;;;;;;;;16.82;47.36;100294.59;4971958;28;1649;-52
2022/08/07 02:15:29;;;;;;;;;;;;;;;17.84;48.89;100297.44;4977766;28;1910;-52
2022/08/07 02:17:54;;;;;;;;;;;;;;;17.29;49.43;100298.59;5002831;28;1153;-49
2022/08/07 02:20:20;;;;;;;;;;;;;;;17.09;49.12;100299.63;4994747;28;1030;-50
2022/08/07 02:22:45;;;;;;;;;;;;;;;17.16;48.47;100296.53;4990832;28;1216;-47
2022/08/07 02:25:12;;;;;;;;;;;;;;;17.08;48.26;100298.81;4995440;28;1155;-51
2022/08/07 02:27:37;;;;;;;;;;;;;;;17.03;47.97;100298.03;4999733;28;2401;-51
2022/08/07 02:30:04;;;;;;;;;;;;;;;17.08;48.01;100304.28;5000836;28;1216;-50
2022/08/07 02:32:35;;;;;;;;;;;;;;;17.00;48.05;100296.66;5014860;28;1158;-51
2022/08/07 02:35:00;;;;;;;;;;;;;;;17.02;47.83;100297.19;4998495;28;1894;-50
2022/08/07 02:37:27;;;;;;;;;;;;;;;16.93;47.89;100301.69;4968907;28;1204;-50
2022/08/07 02:39:52;;;;;;;;;;;;;;;16.88;47.82;100297.03;4998248;28;1212;-50
2022/08/07 02:42:19;;;;;;;;;;;;;;;16.93;47.46;100298.94;4981687;28;1374;-47
2022/08/07 02:44:47;;;;;;;;;;;;;;;16.85;47.95;100299.53;4984931;28;1289;-49
2022/08/07 02:47:14;;;;;;;;;;;;;;;16.83;47.74;100301.72;4981440;28;1289;-50
2022/08/07 02:49:40;;;;;;;;;;;;;;;16.80;47.75;100314.09;4995428;28;1192;-51
2022/08/07 02:52:07;;;;;;;;;;;;;;;16.85;47.65;100300.31;5010991;28;1146;-52
2022/08/07 02:54:32;;;;;;;;;;;;;;;16.81;47.41;100301.19;4994303;28;1216;-49
2022/08/07 02:56:59;;;;;;;;;;;;;;;16.84;47.45;100303.38;4995730;28;1977;-52
2022/08/07 02:59:25;;;;;;;;;;;;;;;16.85;47.60;100299.53;4993129;28;878;-49
2022/08/07 03:01:50;;;;;;;;;;;;;;;16.76;47.45;100293.84;5012779;28;1014;-50
2022/08/07 03:04:16;;;;;;;;;;;;;;;16.79;47.58;100295.16;4996466;28;1010;-49
2022/08/07 03:06:42;;;;;;;;;;;;;;;16.74;47.52;100288.59;4990594;28;1894;-54
2022/08/07 03:09:08;;;;;;;;;;;;;;;18.01;48.43;100306.06;5006825;28;1095;-54
2022/08/07 03:11:34;;;;;;;;;;;;;;;17.30;49.36;100305.72;4991173;28;904;-53
2022/08/07 03:14:00;;;;;;;;;;;;;;;17.16;48.92;100310.28;4984831;28;1319;-51
2022/08/07 03:16:25;;;;;;;;;;;;;;;17.05;48.75;100301.28;5006589;28;1906;-50
2022/08/07 03:18:51;;;;;;;;;;;;;;;17.02;48.26;100310.94;4990947;28;1153;-50
2022/08/07 03:21:17;;;;;;;;;;;;;;;16.96;48.17;100309.34;5006988;28;1358;-49
2022/08/07 03:23:43;;;;;;;;;;;;;;;16.88;48.20;100310.75;4979832;28;1310;-53
2022/08/07 03:26:08;;;;;;;;;;;;;;;16.91;47.92;100309.38;4996844;28;2079;-58
2022/08/07 03:28:36;;;;;;;;;;;;;;;16.85;47.66;100311.31;4994117;28;1424;-58
2022/08/07 03:31:17;;;;;;;;;;;;;;;16.82;47.89;100316.56;5012790;28;1088;-56
2022/08/07 03:33:43;;;;;;;;;;;;;;;16.82;47.82;100311.09;4977047;28;1937;-53
2022/08/07 03:36:09;;;;;;;;;;;;;;;16.78;47.89;100316.31;5002349;28;1906;-58
2022/08/07 03:38:35;;;;;;;;;;;;;;;16.82;47.54;100311.09;4997054;28;1070;-58
2022/08/07 03:41:04;;;;;;;;;;;;;;;16.85;47.45;100316.00;5009192;28;1155;-58
2022/08/07 03:43:31;;;;;;;;;;;;;;;16.81;47.44;100323.16;4972438;28;1348;-57
2022/08/07 03:45:56;;;;;;;;;;;;;;;16.71;47.60;100324.06;4967598;28;1177;-57
2022/08/07 03:48:24;;;;;;;;;;;;;;;16.75;47.47;100328.69;4980238;28;1196;-58
2022/08/07 03:50:50;;;;;;;;;;;;;;;16.83;47.19;100320.94;4996273;28;1083;-58
2022/08/07 03:53:16;;;;;;;;;;;;;;;16.70;47.48;100331.44;4995877;28;1011;-56
2022/08/07 03:55:42;;;;;;;;;;;;;;;16.77;47.25;100326.50;5010579;28;1973;-49
2022/08/07 03:58:07;;;;;;;;;;;;;;;16.74;47.39;100326.22;4995608;28;1141;-52
2022/08/07 04:00:35;;;;;;;;;;;;;;;17.13;48.10;100332.84;4980027;28;979;-56
2022/08/07 04:03:01;;;;;;;;;;;;;;;17.54;49.43;100326.94;4995856;28;1184;-56
2022/08/07 04:05:35;;;;;;;;;;;;;;;17.15;49.62;100325.09;5008818;28;1423;-54
2022/08/07 04:08:02;;;;;;;;;;;;;;;17.05;49.11;100329.56;5010999;28;970;-54
2022/08/07 04:10:27;;;;;;;;;;;;;;;17.00;48.71;100320.56;4979301;28;1104;-52
2022/08/07 04:12:53;;;;;;;;;;;;;;;16.98;48.19;100326.34;4968643;28;1392;-52
2022/08/07 04:15:19;;;;;;;;;;;;;;;16.94;47.99;100319.78;4977004;28;1956;-52
2022/08/07 04:17:44;;;;;;;;;;;;;;;16.97;47.72;100335.72;4971489;28;1183;-55
2022/08/07 04:20:11;;;;;;;;;;;;;;;16.97;47.77;100326.63;4995842;28;1600;-53
2022/08/07 04:22:37;;;;;;;;;;;;;;;16.91;47.73;100339.59;5005716;28;1162;-52
2022/08/07 04:25:04;;;;;;;;;;;;;;;16.85;47.81;100332.47;4986441;28;1114;-49
2022/08/07 04:27:30;;;;;;;;;;;;;;;16.90;47.54;100329.69;5005703;28;1111;-54
2022/08/07 04:29:57;;;;;;;;;;;;;;;16.84;47.65;100334.38;5010973;28;1434;-57
2022/08/07 04:32:23;;;;;;;;;;;;;;;16.85;47.76;100329.72;4995262;28;1312;-53
2022/08/07 04:34:49;;;;;;;;;;;;;;;16.80;47.86;100332.50;4994742;28;1902;-53
2022/08/07 04:37:15;;;;;;;;;;;;;;;16.85;48.35;100327.78;4977563;28;1197;-53
2022/08/07 04:39:41;;;;;;;;;;;;;;;16.87;47.90;100330.25;4969419;28;2637;-52
2022/08/07 04:42:06;;;;;;;;;;;;;;;16.83;47.80;100319.03;4980763;28;1835;-53
2022/08/07 04:44:32;;;;;;;;;;;;;;;16.89;47.71;100336.31;5011957;28;2168;-53
2022/08/07 04:47:04;;;;;;;;;;;;;;;16.79;47.95;100331.69;5004662;28;2212;-52
2022/08/07 04:49:40;;;;;;;;;;;;;;;16.74;48.00;100332.53;4972182;28;2199;-53
2022/08/07 04:52:11;;;;;;;;;;;;;;;16.72;47.79;100328.44;4996129;28;1859;-52
2022/08/07 04:54:42;;;;;;;;;;;;;;;16.83;47.85;100334.66;4996108;28;2062;-51
2022/08/07 04:57:43;;;;;;;;;;;;;;;16.87;47.65;100331.09;4995915;28;1161;-54
2022/08/07 05:00:10;;;;;;;;;;;;;;;16.84;47.73;100323.41;4954458;29;1347;-51
2022/08/07 05:02:43;;;;;;;;;;;;;;;16.83;47.93;100327.28;4954396;28;1153;-52
2022/08/07 05:05:14;;;;;;;;;;;;;;;16.84;47.71;100333.56;4975987;28;1217;-48
2022/08/07 05:07:51;;;;;;;;;;;;;;;16.84;47.92;100336.31;4994701;28;1302;-50
2022/08/07 05:10:18;;;;;;;;;;;;;;;16.90;47.64;100335.19;4994668;28;1186;-51
2022/08/07 05:12:51;;;;;;;;;;;;;;;17.49;49.13;100337.97;5010938;28;1204;-53
2022/08/07 05:15:29;;;;;;;;;;;;;;;17.15;49.49;100341.59;4992464;28;1902;-49
2022/08/07 05:18:02;;;;;;;;;;;;;;;17.14;48.58;100337.19;4993637;28;1181;-51
2022/08/07 05:20:33;;;;;;;;;;;;;;;16.99;48.74;100325.25;4994875;28;1224;-53
2022/08/07 05:23:00;;;;;;;;;;;;;;;17.01;48.19;100341.44;5010728;28;2344;-53
2022/08/07 05:25:26;;;;;;;;;;;;;;;16.99;48.37;100335.41;5010764;28;1228;-54
2022/08/07 05:27:52;;;;;;;;;;;;;;;16.98;48.37;100337.31;4978507;28;1460;-54
2022/08/07 05:30:19;;;;;;;;;;;;;;;17.01;48.10;100339.53;4994724;28;1160;-54
2022/08/07 05:32:46;;;;;;;;;;;;;;;16.99;48.05;100338.97;5011241;28;1208;-54
2022/08/07 05:35:12;;;;;;;;;;;;;;;16.98;47.96;100342.00;4977229;28;1973;-55
2022/08/07 05:37:37;;;;;;;;;;;;;;;17.03;47.95;100351.03;5011031;28;1267;-53
2022/08/07 05:40:05;;;;;;;;;;;;;;;17.00;48.06;100351.59;4991786;28;1257;-53
2022/08/07 05:42:31;;;;;;;;;;;;;;;17.01;47.92;100346.91;5011237;28;1280;-52
2022/08/07 05:44:56;;;;;;;;;;;;;;;16.91;48.24;100353.31;4989580;28;1228;-52
2022/08/07 05:47:22;;;;;;;;;;;;;;;17.15;48.67;100355.31;4994800;28;1305;-51
2022/08/07 05:49:49;;;;;;;;;;;;;;;18.34;47.00;100360.41;4993958;28;1264;-53
2022/08/07 05:52:16;;;;;;;;;;;;;;;17.96;48.58;100366.66;5011123;28;1283;-54
2022/08/07 05:54:41;;;;;;;;;;;;;;;17.86;49.33;100353.00;4991751;28;2561;-52
2022/08/07 05:57:09;;;;;;;;;;;;;;;17.80;50.13;100368.72;4976363;28;1304;-50
2022/08/07 05:59:36;;;;;;;;;;;;;;;17.72;50.75;100367.41;4991841;28;1228;-52
2022/08/07 06:02:01;;;;;;;;;;;;;;;17.69;51.50;100370.75;5006345;28;1228;-52
2022/08/07 06:04:28;;;;;;;;;;;;;;;17.62;51.86;100362.03;4969339;28;1380;-56
2022/08/07 06:06:53;;;;;;;;;;;;;;;17.60;52.52;100358.78;4988287;28;1216;-57
2022/08/07 06:09:19;;;;;;;;;;;;;;;17.56;52.83;100363.22;5006273;28;1220;-56
2022/08/07 06:11:46;;;;;;;;;;;;;;;17.54;52.99;100365.41;4997454;28;1252;-53
2022/08/07 06:14:12;;;;;;;;;;;;;;;17.51;53.54;100364.06;4982034;28;1236;-55
2022/08/07 06:16:39;;;;;;;;;;;;;;;17.48;54.07;100372.09;4996860;28;1902;-54
2022/08/07 06:19:05;;;;;;;;;;;;;;;17.45;54.07;100373.47;4975218;28;1019;-54
2022/08/07 06:21:32;;;;;;;;;;;;;;;17.42;54.41;100372.13;4982085;28;1391;-54
2022/08/07 06:23:59;;;;;;;;;;;;;;;17.44;54.75;100372.66;5014617;28;2512;-55
2022/08/07 06:26:24;;;;;;;;;;;;;;;17.41;55.11;100373.22;4996439;28;1256;-56
2022/08/07 06:28:55;;;;;;;;;;;;;;;17.39;55.25;100369.97;4980840;28;1421;-55
2022/08/07 06:31:24;;;;;;;;;;;;;;;17.38;55.16;100373.81;4978128;28;1351;-53
2022/08/07 06:33:50;;;;;;;;;;;;;;;17.36;55.62;100370.53;4988619;28;1026;-55
2022/08/07 06:36:16;;;;;;;;;;;;;;;17.32;55.80;100371.38;4987352;28;1985;-55
2022/08/07 06:38:47;;;;;;;;;;;;;;;17.34;55.68;100378.25;4974854;28;1262;-55
2022/08/07 06:41:16;;;;;;;;;;;;;;;17.33;55.80;100373.03;4985547;28;1117;-51
2022/08/07 06:43:42;;;;;;;;;;;;;;;17.33;55.82;100376.59;4997132;28;1236;-55
2022/08/07 06:46:11;;;;;;;;;;;;;;;17.30;56.10;100379.94;4994727;28;1356;-54
2022/08/07 06:48:37;;;;;;;;;;;;;;;17.27;56.00;100378.56;4993809;28;1154;-55
2022/08/07 06:51:05;;;;;;;;;;;;;;;17.33;56.35;100382.09;4973182;28;1129;-53
2022/08/07 06:53:30;;;;;;;;;;;;;;;17.28;56.03;100382.16;4983289;28;2397;-55
2022/08/07 06:55:56;;;;;;;;;;;;;;;17.28;56.32;100382.16;5005483;28;1906;-54
2022/08/07 06:58:22;;;;;;;;;;;;;;;17.26;56.22;100376.13;4997172;28;1214;-53
2022/08/07 07:00:53;;;;;;;;;;;;;;;17.26;56.34;100387.09;5004766;28;1226;-53
2022/08/07 07:03:20;;;;;;;;;;;;;;;17.30;56.49;100382.69;4987734;28;1250;-52
2022/08/07 07:05:45;;;;;;;;;;;;;;;17.24;56.58;100375.59;4988351;28;1098;-56
2022/08/07 07:08:11;;;;;;;;;;;;;;;17.26;56.58;100376.13;4992979;28;1193;-49
2022/08/07 07:10:37;;;;;;;;;;;;;;;17.23;56.70;100372.00;4988158;28;1180;-54
2022/08/07 07:13:18;;;;;;;;;;;;;;;17.21;56.94;100376.97;4996424;28;1111;-54
2022/08/07 07:15:47;;;;;;;;;;;;;;;17.21;56.97;100379.72;5011215;28;1988;-54
2022/08/07 07:18:15;;;;;;;;;;;;;;;17.25;56.71;100382.72;5013444;28;1220;-53
2022/08/07 07:20:42;;;;;;;;;;;;;;;17.22;56.98;100386.03;4993831;28;1533;-55
2022/08/07 07:23:08;;;;;;;;;;;;;;;17.24;57.01;100381.09;5013637;28;2184;-57
2022/08/07 07:25:34;;;;;;;;;;;;;;;17.20;57.09;100377.28;4990987;28;924;-52
2022/08/07 07:28:01;;;;;;;;;;;;;;;17.20;57.00;100388.25;4991589;28;1067;-54
2022/08/07 07:30:28;;;;;;;;;;;;;;;17.23;57.11;100387.69;4991253;28;963;-54
2022/08/07 07:32:54;;;;;;;;;;;;;;;17.22;57.05;100386.03;4991267;28;963;-50
2022/08/07 07:35:19;;;;;;;;;;;;;;;17.20;57.12;100393.75;4994483;28;1981;-50
2022/08/07 07:37:44;;;;;;;;;;;;;;;17.21;57.19;100389.91;5010048;28;943;-55
2022/08/07 07:40:11;;;;;;;;;;;;;;;17.17;57.34;100384.16;4979105;28;1173;-51
2022/08/07 07:42:37;;;;;;;;;;;;;;;17.19;57.17;100389.38;4987182;28;1011;-53
2022/08/07 07:45:03;;;;;;;;;;;;;;;17.19;57.19;100389.38;5001860;28;1133;-52
2022/08/07 07:47:29;;;;;;;;;;;;;;;17.20;57.37;100382.78;5007062;28;1109;-55
2022/08/07 07:49:54;;;;;;;;;;;;;;;17.17;57.29;100380.59;4989795;28;838;-55
2022/08/07 07:52:20;;;;;;;;;;;;;;;17.22;57.19;100397.03;4996301;28;955;-57
2022/08/07 07:54:45;;;;;;;;;;;;;;;17.16;57.41;100392.69;4996555;28;1072;-52
2022/08/07 07:57:10;;;;;;;;;;;;;;;17.16;57.31;100390.75;4997917;28;1969;-52
2022/08/07 07:59:37;;;;;;;;;;;;;;;17.13;57.60;100393.28;5012560;28;1299;-54
2022/08/07 08:02:02;;;;;;;;;;;;;;;17.18;57.26;100383.06;5012293;28;1050;-53
2022/08/07 08:04:28;;;;;;;;;;;;;;;17.18;57.31;100395.97;5012897;28;1244;-54
2022/08/07 08:06:54;;;;;;;;;;;;;;;17.18;57.35;100401.44;5012125;28;1318;-55
2022/08/07 08:09:20;;;;;;;;;;;;;;;17.17;57.25;100391.59;4997470;28;1319;-54
2022/08/07 08:11:45;;;;;;;;;;;;;;;17.14;57.53;100394.88;5012042;28;1224;-55
2022/08/07 08:14:10;;;;;;;;;;;;;;;17.17;57.29;100395.16;5012212;28;1267;-54
2022/08/07 08:16:41;;;;;;;;;;;;;;;17.15;57.49;100394.59;5011965;28;1977;-54
2022/08/07 08:19:07;;;;;;;;;;;;;;;17.17;57.38;100394.34;4997179;28;1197;-53
2022/08/07 08:27:04;;;;;;;;;;;;;;;17.20;57.34;100393.75;4997122;28;1134;-54
2022/08/07 08:29:56;;;;;;;;;;;;;;;17.17;57.44;100386.91;4997199;28;1252;-54
2022/08/07 08:32:23;;;;;;;;;;;;;;;17.23;57.32;100384.94;4992417;28;1247;-55
2022/08/07 08:34:49;;;;;;;;;;;;;;;17.18;57.61;100390.47;5012162;28;1307;-54
2022/08/07 08:37:15;;;;;;;;;;;;;;;17.20;57.44;100382.78;5009802;28;1307;-53
2022/08/07 08:39:41;;;;;;;;;;;;;;;17.19;57.67;100392.13;5011308;28;1224;-50
2022/08/07 08:42:11;;;;;;;;;;;;;;;17.17;57.85;100391.59;4997128;28;1161;-54
2022/08/07 08:44:55;;;;;;;;;;;;;;;17.23;57.59;100398.69;5012132;28;1196;-53
2022/08/07 08:47:25;;;;;;;;;;;;;;;17.18;57.67;100395.97;4995972;28;1157;-53
2022/08/07 08:49:53;;;;;;;;;;;;;;;17.24;57.28;100386.59;4996542;28;1204;-53
2022/08/07 08:52:21;;;;;;;;;;;;;;;17.19;57.62;100381.94;4996663;28;1105;-52
2022/08/07 08:54:51;;;;;;;;;;;;;;;17.18;57.77;100391.31;5010581;28;1192;-51
2022/08/07 08:57:35;;;;;;;;;;;;;;;17.17;57.69;100388.84;5011023;28;1389;-54
2022/08/07 09:00:05;;;;;;;;;;;;;;;17.20;57.65;100377.28;4993956;28;1146;-50
2022/08/07 09:02:33;;;;;;;;;;;;;;;17.18;57.77;100393.22;4996617;28;1189;-52
2022/08/07 09:05:01;;;;;;;;;;;;;;;17.18;57.69;100387.72;4992798;28;1186;-53
2022/08/07 09:07:46;;;;;;;;;;;;;;;17.20;57.48;100383.59;5011286;28;1284;-51
2022/08/07 09:10:14;;;;;;;;;;;;;;;17.20;57.46;100393.75;4996255;28;1205;-53
2022/08/07 09:12:40;;;;;;;;;;;;;;;17.25;57.44;100374.47;4995979;28;1102;-54
2022/08/07 09:15:11;;;;;;;;;;;;;;;17.21;57.66;100378.94;4996300;28;2017;-54
2022/08/07 09:17:51;;;;;;;;;;;;;;;17.21;57.75;100374.25;4996412;28;1117;-52
2022/08/07 09:20:23;;;;;;;;;;;;;;;17.24;57.80;100387.41;4993467;28;1142;-54
2022/08/07 09:22:57;;;;;;;;;;;;;;;17.24;57.64;100378.34;4996304;28;2207;-53
2022/08/07 09:25:29;;;;;;;;;;;;;;;17.23;57.88;100377.50;4994082;28;1210;-52
2022/08/07 09:27:56;;;;;;;;;;;;;;;17.21;57.92;100376.97;5011300;28;1294;-54
2022/08/07 09:30:22;;;;;;;;;;;;;;;17.27;57.74;100370.31;4995938;28;1354;-51
2022/08/07 09:33:06;;;;;;;;;;;;;;;17.28;57.82;100379.41;4996477;28;1354;-54
2022/08/07 09:35:31;;;;;;;;;;;;;;;17.28;57.79;100380.22;4995122;28;1909;-51
2022/08/07 09:38:10;;;;;;;;;;;;;;;17.34;57.99;100364.50;4995844;28;1031;-53
2022/08/07 09:40:55;;;;;;;;;;;;;;;17.35;57.87;100374.41;5010559;28;1374;-54
2022/08/07 09:43:39;;;;;;;;;;;;;;;17.34;58.14;100383.75;4993897;28;1245;-55
2022/08/07 09:46:26;;;;;;;;;;;;;;;17.37;58.19;100377.66;4996956;28;1118;-57
2022/08/07 09:49:05;;;;;;;;;;;;;;;17.35;58.24;100368.91;4996625;28;1058;-53
2022/08/07 09:51:49;;;;;;;;;;;;;;;17.37;58.19;100372.16;4990024;28;1114;-51
2022/08/07 09:54:19;;;;;;;;;;;;;;;17.37;57.98;100369.41;4998688;28;2344;-54
2022/08/07 09:56:51;;;;;;;;;;;;;;;17.41;58.09;100378.72;5010388;28;1902;-55
2022/08/07 09:59:35;;;;;;;;;;;;;;;17.36;58.31;100378.78;4992883;28;1195;-54
2022/08/07 10:02:06;;;;;;;;;;;;;;;17.41;58.21;100377.91;4993678;28;1065;-52
2022/08/07 10:04:44;;;;;;;;;;;;;;;17.38;58.06;100375.75;4980712;28;1003;-54
2022/08/07 10:07:21;;;;;;;;;;;;;;;17.38;58.09;100373.00;4992646;28;1035;-53
2022/08/07 10:10:05;;;;;;;;;;;;;;;17.40;57.85;100373.53;4987952;28;995;-53
2022/08/07 10:12:31;;;;;;;;;;;;;;;17.37;57.99;100377.66;4992452;28;1186;-53
2022/08/07 10:15:15;;;;;;;;;;;;;;;17.37;58.19;100368.59;4992140;28;1971;-54
2022/08/07 10:17:49;;;;;;;;;;;;;;;17.34;57.92;100386.50;4995136;28;1235;-54
2022/08/07 10:20:18;;;;;;;;;;;;;;;17.38;57.93;100365.56;4993836;28;1066;-55
2022/08/07 10:22:56;;;;;;;;;;;;;;;17.38;57.91;100376.56;4982953;28;2471;-53
2022/08/07 10:25:25;;;;;;;;;;;;;;;17.42;58.09;100380.38;4997713;28;987;-53
2022/08/07 10:27:59;;;;;;;;;;;;;;;17.42;58.20;100374.88;4998678;28;1492;-54
2022/08/07 10:30:26;;;;;;;;;;;;;;;17.41;58.34;100370.47;4998464;28;1094;-55
2022/08/07 10:33:00;;;;;;;;;;;;;;;17.43;58.21;100365.53;4995460;28;1034;-54
2022/08/07 10:35:45;;;;;;;;;;;;;;;17.45;58.38;100357.00;4996493;28;1985;-54
2022/08/07 10:38:19;;;;;;;;;;;;;;;17.50;58.43;100364.34;4995345;28;1219;-53
2022/08/07 10:40:45;;;;;;;;;;;;;;;17.48;58.45;100361.91;4998486;28;991;-53
2022/08/07 10:43:13;;;;;;;;;;;;;;;17.50;58.36;100370.69;4992073;28;1220;-54
2022/08/07 10:45:41;;;;;;;;;;;;;;;17.49;58.39;100370.97;4998954;28;1192;-55
2022/08/07 10:48:11;;;;;;;;;;;;;;;17.52;58.32;100373.97;4998598;28;1130;-58
2022/08/07 10:50:51;;;;;;;;;;;;;;;17.52;58.46;100362.16;4998889;28;1310;-56
2022/08/07 10:53:35;;;;;;;;;;;;;;;17.57;58.30;100371.16;4999629;28;1974;-53
2022/08/07 10:56:05;;;;;;;;;;;;;;;17.57;58.44;100370.34;5006103;28;1918;-53
2022/08/07 10:58:34;;;;;;;;;;;;;;;17.54;58.68;100359.91;4996811;28;1151;-54
2022/08/07 11:01:08;;;;;;;;;;;;;;;17.57;58.54;100362.09;4998591;28;1169;-56
2022/08/07 11:03:34;;;;;;;;;;;;;;;17.57;58.81;100359.34;5013704;28;1228;-57
2022/08/07 11:06:19;;;;;;;;;;;;;;;17.58;58.56;100355.47;4998623;28;1101;-58
2022/08/07 11:08:51;;;;;;;;;;;;;;;17.59;58.72;100366.19;5012329;28;1319;-56
2022/08/07 11:11:20;;;;;;;;;;;;;;;17.61;58.57;100349.41;5013646;28;1251;-57
2022/08/07 11:13:48;;;;;;;;;;;;;;;17.63;58.47;100363.69;4997987;28;1474;-57
2022/08/07 11:16:21;;;;;;;;;;;;;;;17.62;58.46;100354.59;4998621;28;1918;-55
2022/08/07 11:18:55;;;;;;;;;;;;;;;17.62;58.47;100351.84;4998893;28;1279;-55
2022/08/07 11:21:25;;;;;;;;;;;;;;;17.63;58.63;100358.19;5013175;28;1030;-54
2022/08/07 11:23:58;;;;;;;;;;;;;;;17.67;58.58;100353.75;4998745;28;2246;-53
2022/08/07 11:26:42;;;;;;;;;;;;;;;17.66;58.52;100345.78;4998026;28;1022;-55
2022/08/07 11:29:13;;;;;;;;;;;;;;;17.66;58.58;100341.09;4997968;28;1209;-52
2022/08/07 11:31:50;;;;;;;;;;;;;;;17.68;58.69;100340.81;4994247;28;1236;-54
2022/08/07 11:34:48;;;;;;;;;;;;;;;17.69;58.67;100347.97;4998000;28;1216;-54
2022/08/07 11:37:25;;;;;;;;;;;;;;;17.71;58.71;100345.72;4972730;28;1918;-54
2022/08/07 11:40:24;;;;;;;;;;;;;;;17.68;58.49;100344.38;4997381;28;1221;-54
2022/08/07 11:42:56;;;;;;;;;;;;;;;17.70;58.68;100347.66;4974543;28;1389;-56
2022/08/07 11:45:21;;;;;;;;;;;;;;;17.68;58.72;100340.81;4996595;28;1152;-51
2022/08/07 11:47:50;;;;;;;;;;;;;;;17.67;58.63;100342.75;4997606;28;1043;-55
2022/08/07 11:50:20;;;;;;;;;;;;;;;17.69;58.75;100357.00;4997264;28;1165;-53
2022/08/07 11:52:46;;;;;;;;;;;;;;;17.73;58.57;100352.56;5011644;28;2542;-52
2022/08/07 11:55:17;;;;;;;;;;;;;;;17.69;58.50;100346.00;4997354;28;1906;-54
2022/08/07 11:57:46;;;;;;;;;;;;;;;17.71;58.47;100349.31;4997956;28;1066;-51
2022/08/07 12:00:15;;;;;;;;;;;;;;;17.71;58.55;100352.06;5012620;28;1251;-54
2022/08/07 12:02:45;;;;;;;;;;;;;;;17.70;58.54;100353.16;4992534;28;1268;-53
2022/08/07 12:05:13;;;;;;;;;;;;;;;17.67;58.54;100362.00;4994803;28;1259;-52
2022/08/07 12:07:59;;;;;;;;;;;;;;;17.69;58.36;100342.47;4997263;28;1291;-54
2022/08/07 12:10:25;;;;;;;;;;;;;;;17.70;58.34;100344.91;4996651;28;1260;-53
2022/08/07 12:12:50;;;;;;;;;;;;;;;17.70;58.50;100339.41;4996874;28;1157;-51
2022/08/07 12:15:18;;;;;;;;;;;;;;;17.71;58.28;100338.31;4996693;28;1898;-55
2022/08/07 12:17:58;;;;;;;;;;;;;;;17.73;58.44;100340.75;5012184;28;1240;-54
2022/08/07 12:20:30;;;;;;;;;;;;;;;17.71;58.29;100348.47;4995910;28;1264;-52
2022/08/07 12:23:04;;;;;;;;;;;;;;;17.78;58.13;100336.03;4995110;28;1814;-53
2022/08/07 12:28:15;;;;;;;;;;;;;;;17.67;58.60;100340.00;4996882;28;1019;-52
2022/08/07 12:30:41;;;;;;;;;;;;;;;17.70;58.40;100350.41;4995949;28;1268;-54
2022/08/07 12:33:10;;;;;;;;;;;;;;;17.71;58.43;100345.72;4996963;28;1284;-53
2022/08/07 12:35:36;;;;;;;;;;;;;;;17.75;58.16;100344.88;5011964;28;1973;-55
2022/08/07 12:38:01;;;;;;;;;;;;;;;17.74;58.13;100326.72;4994436;28;1323;-51
2022/08/07 12:40:28;;;;;;;;;;;;;;;17.76;58.37;100332.72;4996277;28;1059;-55
2022/08/07 12:42:54;;;;;;;;;;;;;;;17.76;58.17;100338.22;5008326;28;1286;-53
2022/08/07 12:45:24;;;;;;;;;;;;;;;17.76;58.48;100329.97;4996264;28;1265;-54
2022/08/07 12:47:53;;;;;;;;;;;;;;;17.78;58.11;100335.19;4994126;28;1086;-52
2022/08/07 12:50:24;;;;;;;;;;;;;;;17.78;58.04;100322.28;4996116;28;1284;-54
2022/08/07 12:52:52;;;;;;;;;;;;;;;17.73;58.44;100344.31;4997406;28;1820;-54
2022/08/07 12:55:26;;;;;;;;;;;;;;;17.74;58.31;100332.22;5010835;28;1901;-53
2022/08/07 12:57:52;;;;;;;;;;;;;;;17.74;58.00;100326.72;4992820;28;1276;-52
2022/08/07 13:00:19;;;;;;;;;;;;;;;17.73;57.97;100336.06;5011371;28;1260;-53
2022/08/07 13:02:44;;;;;;;;;;;;;;;17.70;58.21;100331.16;4994833;28;1272;-53
2022/08/07 13:05:17;;;;;;;;;;;;;;;17.71;58.27;100326.47;4996110;28;1386;-51